createdAt,value
2023-02-11T15:33:22.686Z,19.57
2023-02-11T15:34:25.618Z,13.62
2023-02-11T15:35:28.680Z,15.28
2023-02-11T15:36:31.473Z,15.06
2023-02-11T15:37:34.247Z,16.60
2023-02-11T15:38:37.265Z,16.58
2023-02-11T15:39:39.996Z,16.34
2023-02-11T15:40:43.259Z,13.76
2023-02-11T15:41:46.251Z,14.47
2023-02-11T15:42:53.336Z,17.12
2023-02-11T15:43:53.852Z,14.85
2023-02-11T15:44:56.953Z,14.42
2023-02-11T15:45:59.835Z,16.68
2023-02-11T15:47:02.668Z,16.97
2023-02-11T15:48:05.652Z,17.51
2023-02-11T15:49:11.487Z,17.25
2023-02-11T15:50:14.366Z,14.34
2023-02-11T15:51:17.240Z,13.55
2023-02-11T15:52:20.341Z,14.56
2023-02-11T15:53:23.222Z,14.40
2023-02-11T15:54:25.861Z,19.01
2023-02-11T15:55:28.939Z,15.81
2023-02-11T15:56:31.822Z,16.65
2023-02-11T15:57:35.020Z,16.79
2023-02-11T15:58:37.990Z,17.72
2023-02-11T15:59:40.859Z,12.72
2023-02-11T16:00:46.512Z,17.36
2023-02-11T16:01:49.124Z,14.87
2023-02-11T16:02:51.839Z,15.45
2023-02-11T16:03:54.576Z,17.10
2023-02-11T16:04:57.317Z,16.67
2023-02-11T16:05:59.873Z,14.16
2023-02-11T16:07:02.519Z,15.61
2023-02-11T16:08:06.613Z,15.35
2023-02-11T16:09:09.500Z,14.85
2023-02-11T16:10:12.600Z,14.90
2023-02-11T16:11:15.545Z,16.48
2023-02-11T16:12:18.434Z,15.95
2023-02-11T16:13:21.509Z,15.32
2023-02-11T16:14:24.183Z,14.72
2023-02-11T16:15:27.365Z,15.62
2023-02-11T16:16:30.491Z,15.01
2023-02-11T16:17:33.217Z,12.42
2023-02-11T16:18:39.947Z,12.48
2023-02-11T16:19:40.195Z,13.14
2023-02-11T16:20:42.756Z,15.96
2023-02-11T16:21:45.442Z,12.77
2023-02-11T16:22:47.998Z,14.70
2023-02-11T16:23:50.908Z,14.16
2023-02-11T16:24:53.643Z,15.46
2023-02-11T16:25:56.435Z,14.85
2023-02-11T16:26:59.182Z,15.99
2023-02-11T16:28:01.779Z,13.13
2023-02-11T16:29:04.313Z,13.26
2023-02-11T16:30:07.083Z,13.87
2023-02-11T16:31:09.871Z,12.33
2023-02-11T16:32:12.523Z,14.09
2023-02-11T16:33:15.197Z,12.47
2023-02-11T16:34:17.964Z,18.21
2023-02-11T16:35:20.541Z,15.84
2023-02-11T16:36:25.394Z,15.75
2023-02-11T16:37:27.334Z,13.74
2023-02-11T16:38:29.975Z,12.82
2023-02-11T16:39:32.656Z,13.67
2023-02-11T16:40:35.338Z,12.31
2023-02-11T16:41:37.987Z,12.35
2023-02-11T16:42:40.780Z,12.65
2023-02-11T16:43:43.325Z,14.13
2023-02-11T16:44:46.100Z,13.35
2023-02-11T16:45:49.350Z,13.80
2023-02-11T16:46:52.321Z,14.14
2023-02-11T16:47:55.238Z,15.19
2023-02-11T16:48:58.315Z,12.05
2023-02-11T16:50:01.401Z,12.28
2023-02-11T16:51:04.300Z,12.35
2023-02-11T16:52:07.158Z,11.05
2023-02-11T16:53:10.017Z,12.91
2023-02-11T16:54:12.889Z,13.35
2023-02-11T16:55:15.999Z,12.45
2023-02-11T16:56:18.754Z,14.28
2023-02-11T16:57:21.533Z,13.87
2023-02-11T16:58:24.191Z,16.22
2023-02-11T16:59:26.759Z,13.12
2023-02-11T17:00:29.635Z,13.22
2023-02-11T17:01:32.273Z,14.35
2023-02-11T17:02:34.899Z,13.57
2023-02-11T17:03:37.946Z,10.48
2023-02-11T17:04:41.040Z,11.74
2023-02-11T17:05:54.997Z,12.71
2023-02-11T17:06:48.299Z,11.81
2023-02-11T17:07:51.175Z,9.09
2023-02-11T17:08:54.072Z,10.68
2023-02-11T17:09:57.253Z,13.86
2023-02-11T17:11:00.014Z,13.15
2023-02-11T17:12:02.782Z,12.30
2023-02-11T17:13:05.361Z,13.86
2023-02-11T17:14:08.300Z,12.71
2023-02-11T17:15:11.335Z,11.34
2023-02-11T17:16:14.189Z,14.28
2023-02-11T17:17:16.862Z,14.53
2023-02-11T17:18:19.620Z,14.03
2023-02-11T17:19:22.420Z,12.55
2023-02-11T17:20:25.067Z,12.01
2023-02-11T17:21:29.885Z,13.75
2023-02-11T17:22:31.959Z,13.29
2023-02-11T17:23:34.722Z,13.99
2023-02-11T17:24:37.504Z,13.80
2023-02-11T17:25:40.057Z,14.58
2023-02-11T17:26:42.728Z,11.12
2023-02-11T17:27:45.397Z,11.52
2023-02-11T17:28:48.062Z,12.14
2023-02-11T17:29:50.734Z,11.18
2023-02-11T17:30:53.433Z,9.90
2023-02-11T17:31:56.332Z,10.21
2023-02-11T17:32:58.849Z,11.26
2023-02-11T17:34:01.638Z,13.75
2023-02-11T17:35:04.291Z,10.00
2023-02-11T17:36:06.948Z,10.12
2023-02-11T17:37:09.557Z,10.76
2023-02-11T17:38:12.090Z,13.78
2023-02-11T17:39:14.970Z,12.00
2023-02-11T17:40:17.572Z,11.04
2023-02-11T17:41:20.244Z,9.93
2023-02-11T17:42:22.873Z,12.31
2023-02-11T17:43:25.528Z,12.27
2023-02-11T17:44:28.104Z,10.16
2023-02-11T17:45:30.940Z,10.99
2023-02-11T17:46:33.959Z,11.09
2023-02-11T17:47:36.762Z,11.58
2023-02-11T17:48:39.507Z,11.47
2023-02-11T17:49:42.398Z,10.52
2023-02-11T17:50:45.312Z,10.66
2023-02-11T17:51:48.344Z,13.54
2023-02-11T17:52:51.410Z,14.82
2023-02-11T17:53:54.504Z,12.21
2023-02-11T17:54:57.308Z,11.55
2023-02-11T17:56:00.131Z,13.77
2023-02-11T17:57:03.221Z,10.48
2023-02-11T17:58:06.099Z,9.12
2023-02-11T17:59:08.973Z,10.06
2023-02-11T18:00:11.857Z,9.26
2023-02-11T18:01:14.849Z,10.25
2023-02-11T18:02:17.700Z,13.00
2023-02-11T18:03:20.692Z,10.39
2023-02-11T18:04:23.682Z,10.68
2023-02-11T18:05:26.527Z,9.54
2023-02-11T18:06:29.245Z,10.57
2023-02-11T18:07:32.172Z,11.59
2023-02-11T18:08:35.060Z,10.99
2023-02-11T18:09:37.927Z,9.02
2023-02-11T18:10:40.912Z,9.37
2023-02-11T18:11:43.567Z,10.01
2023-02-11T18:12:46.450Z,9.63
2023-02-11T18:13:49.365Z,12.18
2023-02-11T18:14:51.891Z,12.24
2023-02-11T18:15:54.875Z,11.75
2023-02-11T18:16:58.001Z,11.27
2023-02-11T18:18:00.933Z,10.80
2023-02-11T18:19:03.808Z,9.24
2023-02-11T18:20:06.573Z,12.42
2023-02-11T18:21:09.471Z,10.85
2023-02-11T18:22:12.205Z,10.20
2023-02-11T18:23:15.199Z,10.26
2023-02-11T18:24:17.877Z,7.29
2023-02-11T18:25:20.537Z,8.94
2023-02-11T18:26:23.191Z,9.65
2023-02-11T18:27:26.074Z,10.11
2023-02-11T18:28:29.185Z,11.58
2023-02-11T18:29:32.017Z,14.54
2023-02-11T18:30:35.052Z,9.37
2023-02-11T18:31:38.022Z,9.98
2023-02-11T18:32:40.961Z,12.05
2023-02-11T18:33:43.841Z,11.12
2023-02-11T18:34:46.806Z,11.11
2023-02-11T18:35:49.775Z,8.70
2023-02-11T18:36:52.456Z,7.27
2023-02-11T18:37:55.044Z,7.58
2023-02-11T18:38:57.691Z,9.88
2023-02-11T18:40:00.358Z,11.63
2023-02-11T18:41:03.134Z,10.42
2023-02-11T18:42:05.716Z,10.96
2023-02-11T18:43:08.490Z,9.88
2023-02-11T18:44:11.349Z,9.13
2023-02-11T18:45:14.218Z,11.52
2023-02-11T18:46:17.415Z,11.98
2023-02-11T18:47:20.306Z,13.97
2023-02-11T18:48:23.163Z,10.44
2023-02-11T18:49:26.153Z,11.57
2023-02-11T18:50:29.007Z,11.66
2023-02-11T18:51:31.988Z,9.83
2023-02-11T18:52:34.775Z,11.19
2023-02-11T18:53:37.763Z,12.99
2023-02-11T18:54:40.711Z,10.41
2023-02-11T18:55:43.489Z,10.95
2023-02-11T18:56:46.467Z,9.27
2023-02-11T18:57:49.455Z,11.21
2023-02-11T18:58:52.354Z,11.95
2023-02-11T18:59:55.090Z,10.77
2023-02-11T19:00:57.991Z,8.85
2023-02-11T19:02:01.043Z,11.78
2023-02-11T19:03:03.710Z,13.07
2023-02-11T19:04:06.306Z,12.58
2023-02-11T19:05:09.257Z,8.80
2023-02-11T19:06:12.131Z,13.33
2023-02-11T19:07:14.808Z,12.79
2023-02-11T19:08:17.363Z,9.63
2023-02-11T19:09:20.045Z,9.61
2023-02-11T19:10:22.909Z,8.74
2023-02-11T19:11:25.572Z,11.41
2023-02-11T19:12:28.557Z,10.31
2023-02-11T19:13:31.323Z,10.14
2023-02-11T19:14:34.122Z,8.64
2023-02-11T19:15:36.771Z,9.75
2023-02-11T19:16:39.773Z,10.68
2023-02-11T19:17:42.640Z,11.00
2023-02-11T19:18:45.498Z,9.88
2023-02-11T19:19:48.169Z,9.79
2023-02-11T19:20:50.835Z,13.36
2023-02-11T19:21:53.521Z,10.13
2023-02-11T19:22:56.112Z,12.87
2023-02-11T19:23:58.738Z,13.58
2023-02-11T19:25:01.406Z,11.42
2023-02-11T19:26:04.423Z,11.54
2023-02-11T19:27:07.365Z,13.41
2023-02-11T19:28:10.352Z,11.90
2023-02-11T19:29:13.009Z,10.91
2023-02-11T19:30:15.577Z,16.62
2023-02-11T19:31:18.546Z,12.75
2023-02-11T19:32:21.119Z,11.33
2023-02-11T19:33:23.688Z,12.28
2023-02-11T19:34:26.460Z,10.68
2023-02-11T19:35:29.237Z,9.80
2023-02-11T19:36:32.018Z,11.68
2023-02-11T19:37:34.881Z,13.03
2023-02-11T19:38:37.657Z,9.34
2023-02-11T19:39:40.246Z,9.92
2023-02-11T19:40:43.238Z,9.29
2023-02-11T19:41:45.765Z,11.52
2023-02-11T19:42:48.536Z,9.72
2023-02-11T19:43:51.518Z,9.58
2023-02-11T19:44:54.186Z,8.22
2023-02-11T19:45:57.436Z,10.60
2023-02-11T19:47:00.340Z,8.81
2023-02-11T19:48:03.236Z,11.74
2023-02-11T19:49:06.117Z,10.72
2023-02-11T19:50:08.885Z,11.32
2023-02-11T19:51:13.286Z,10.52
2023-02-11T19:52:19.166Z,12.34
2023-02-11T19:53:22.132Z,14.25
2023-02-11T19:54:24.874Z,14.10
2023-02-11T19:55:27.973Z,10.32
2023-02-11T19:56:30.848Z,10.25
2023-02-11T19:57:33.520Z,8.05
2023-02-11T19:58:36.081Z,11.21
2023-02-11T19:59:38.968Z,10.79
2023-02-11T20:00:41.638Z,8.75
2023-02-11T20:01:44.619Z,8.35
2023-02-11T20:02:47.337Z,6.87
2023-02-11T20:03:50.486Z,10.29
2023-02-11T20:04:56.285Z,9.52
2023-02-11T20:05:58.965Z,8.86
2023-02-11T20:07:01.966Z,9.89
2023-02-11T20:08:04.816Z,9.73
2023-02-11T20:09:07.699Z,12.03
2023-02-11T20:10:10.589Z,11.85
2023-02-11T20:11:13.124Z,9.78
2023-02-11T20:12:19.279Z,8.71
2023-02-11T20:13:22.337Z,10.74
2023-02-11T20:14:27.835Z,9.38
2023-02-11T20:15:29.880Z,10.23
2023-02-11T20:16:46.960Z,9.94
2023-02-11T20:17:37.213Z,11.91
2023-02-11T20:18:40.098Z,10.59
2023-02-11T20:19:42.983Z,8.31
2023-02-11T20:20:45.848Z,11.87
2023-02-11T20:21:48.944Z,11.56
2023-02-11T20:22:51.694Z,13.75
2023-02-11T20:23:54.382Z,9.33
2023-02-11T20:24:56.955Z,8.32
2023-02-11T20:25:59.612Z,9.47
2023-02-11T20:27:02.179Z,9.98
2023-02-11T20:28:04.987Z,8.78
2023-02-11T20:29:07.712Z,10.28
2023-02-11T20:30:10.488Z,9.98
2023-02-11T20:31:13.410Z,10.80
2023-02-11T20:32:16.288Z,10.45
2023-02-11T20:33:19.110Z,7.22
2023-02-11T20:34:22.085Z,11.22
2023-02-11T20:35:24.654Z,9.52
2023-02-11T20:36:27.526Z,8.46
2023-02-11T20:37:30.482Z,13.26
2023-02-11T20:38:33.173Z,10.27
2023-02-11T20:39:35.846Z,11.90
2023-02-11T20:40:38.431Z,11.48
2023-02-11T20:41:41.125Z,10.41
2023-02-11T20:42:43.956Z,9.06
2023-02-11T20:43:46.732Z,10.25
2023-02-11T20:44:49.609Z,11.15
2023-02-11T20:45:52.811Z,12.15
2023-02-11T20:46:55.767Z,11.09
2023-02-11T20:47:58.464Z,10.75
2023-02-11T20:49:01.097Z,10.07
2023-02-11T20:50:03.784Z,10.04
2023-02-11T20:51:06.754Z,13.56
2023-02-11T20:52:09.587Z,10.52
2023-02-11T20:53:12.519Z,10.65
2023-02-11T20:54:15.484Z,8.01
2023-02-11T20:55:18.362Z,8.76
2023-02-11T20:56:21.138Z,8.93
2023-02-11T20:57:23.898Z,7.89
2023-02-11T20:58:26.884Z,11.22
2023-02-11T20:59:29.655Z,7.67
2023-02-11T21:00:32.217Z,9.21
2023-02-11T21:01:34.956Z,9.35
2023-02-11T21:02:37.771Z,11.13
2023-02-11T21:03:40.766Z,8.14
2023-02-11T21:04:43.673Z,8.35
2023-02-11T21:05:46.173Z,10.42
2023-02-11T21:06:48.924Z,10.84
2023-02-11T21:07:51.530Z,9.29
2023-02-11T21:08:54.100Z,8.66
2023-02-11T21:09:56.938Z,9.66
2023-02-11T21:10:59.837Z,11.65
2023-02-11T21:12:02.561Z,11.60
2023-02-11T21:13:05.375Z,8.02
2023-02-11T21:14:08.670Z,13.46
2023-02-11T21:15:11.547Z,12.66
2023-02-11T21:16:14.358Z,10.50
2023-02-11T21:17:16.978Z,10.48
2023-02-11T21:18:19.642Z,12.73
2023-02-11T21:19:22.427Z,11.83
2023-02-11T21:20:24.996Z,8.13
2023-02-11T21:21:27.574Z,9.38
2023-02-11T21:22:30.227Z,8.46
2023-02-11T21:23:32.805Z,10.77
2023-02-11T21:24:35.666Z,12.77
2023-02-11T21:25:38.358Z,8.85
2023-02-11T21:26:41.214Z,9.69
2023-02-11T21:27:44.192Z,9.22
2023-02-11T21:28:46.790Z,14.35
2023-02-11T21:29:54.576Z,10.17
2023-02-11T21:30:56.556Z,8.81
2023-02-11T21:31:59.343Z,10.84
2023-02-11T21:33:02.052Z,10.97
2023-02-11T21:34:04.669Z,9.57
2023-02-11T21:35:07.382Z,11.23
2023-02-11T21:36:10.078Z,8.68
2023-02-11T21:37:12.961Z,8.33
2023-02-11T21:38:15.603Z,9.53
2023-02-11T21:39:18.514Z,8.11
2023-02-11T21:40:23.157Z,9.62
2023-02-11T21:41:25.985Z,8.95
2023-02-11T21:42:28.847Z,10.06
2023-02-11T21:43:31.541Z,11.45
2023-02-11T21:44:34.285Z,10.15
2023-02-11T21:45:37.178Z,8.64
2023-02-11T21:46:40.039Z,9.75
2023-02-11T21:47:42.808Z,15.47
2023-02-11T21:48:45.777Z,11.23
2023-02-11T21:49:48.573Z,8.54
2023-02-11T21:50:51.642Z,9.43
2023-02-11T21:51:54.643Z,10.42
2023-02-11T21:52:57.395Z,8.65
2023-02-11T21:54:00.381Z,7.15
2023-02-11T21:55:03.343Z,11.75
2023-02-11T21:56:06.019Z,12.95
2023-02-11T21:57:08.634Z,11.82
2023-02-11T21:58:11.157Z,11.56
2023-02-11T21:59:13.965Z,12.40
2023-02-11T22:00:17.123Z,15.18
2023-02-11T22:01:20.104Z,14.59
2023-02-11T22:02:23.075Z,11.08
2023-02-11T22:03:25.634Z,14.11
2023-02-11T22:04:28.668Z,12.51
2023-02-11T22:05:31.685Z,15.21
2023-02-11T22:06:34.579Z,12.68
2023-02-11T22:07:37.328Z,13.64
2023-02-11T22:08:39.922Z,15.55
2023-02-11T22:09:42.762Z,14.58
2023-02-11T22:10:45.643Z,16.25
2023-02-11T22:11:48.527Z,18.15
2023-02-11T22:12:51.297Z,14.09
2023-02-11T22:13:53.961Z,13.86
2023-02-11T22:14:56.847Z,13.10
2023-02-11T22:15:59.564Z,12.29
2023-02-11T22:17:02.272Z,17.74
2023-02-11T22:18:05.058Z,18.17
2023-02-11T22:19:07.702Z,12.24
2023-02-11T22:20:10.308Z,16.67
2023-02-11T22:21:13.196Z,16.72
2023-02-11T22:22:16.063Z,14.62
2023-02-11T22:23:18.929Z,16.35
2023-02-11T22:24:21.800Z,18.27
2023-02-11T22:25:24.658Z,19.48
2023-02-11T22:26:27.436Z,18.94
2023-02-11T22:27:30.110Z,16.45
2023-02-11T22:28:32.872Z,16.86
2023-02-11T22:29:35.778Z,19.13
2023-02-11T22:30:38.666Z,18.41
2023-02-11T22:31:41.254Z,20.96
2023-02-11T22:32:43.849Z,19.35
2023-02-11T22:33:46.528Z,17.92
2023-02-11T22:34:52.104Z,18.62
2023-02-11T22:35:54.095Z,20.16
2023-02-11T22:36:56.819Z,24.10
2023-02-11T22:37:59.361Z,22.48
2023-02-11T22:39:02.143Z,23.57
2023-02-11T22:40:04.997Z,24.13
2023-02-11T22:41:07.994Z,23.83
2023-02-11T22:42:10.649Z,26.25
2023-02-11T22:43:13.630Z,26.78
2023-02-11T22:44:16.612Z,26.24
2023-02-11T22:45:19.400Z,24.79
2023-02-11T22:46:23.396Z,30.61
2023-02-11T22:47:26.144Z,24.29
2023-02-11T22:48:29.045Z,27.16
2023-02-11T22:49:31.929Z,28.66
2023-02-11T22:50:34.664Z,26.25
2023-02-11T22:51:37.325Z,31.40
2023-02-11T22:52:40.207Z,30.66
2023-02-11T22:53:42.972Z,40.05
2023-02-11T22:54:45.848Z,31.36
2023-02-11T22:55:48.528Z,32.82
2023-02-11T22:56:51.291Z,27.94
2023-02-11T22:57:54.169Z,29.28
2023-02-11T22:58:57.245Z,29.50
2023-02-11T23:00:00.033Z,29.84
2023-02-11T23:01:02.887Z,36.14
2023-02-11T23:02:06.159Z,34.55
2023-02-11T23:03:08.949Z,32.22
2023-02-11T23:04:11.633Z,30.43
2023-02-11T23:05:14.568Z,31.81
2023-02-11T23:06:17.499Z,33.29
2023-02-11T23:07:20.153Z,34.64
2023-02-11T23:08:23.351Z,35.68
2023-02-11T23:09:26.097Z,34.25
2023-02-11T23:10:29.092Z,34.27
2023-02-11T23:11:31.645Z,35.15
2023-02-11T23:12:34.524Z,36.32
2023-02-11T23:13:37.374Z,29.90
2023-02-11T23:14:39.972Z,34.85
2023-02-11T23:15:42.740Z,33.99
2023-02-11T23:16:45.450Z,39.16
2023-02-11T23:17:48.473Z,32.09
2023-02-11T23:18:51.272Z,34.58
2023-02-11T23:19:54.227Z,31.68
2023-02-11T23:20:57.033Z,31.10
2023-02-11T23:21:59.671Z,34.66
2023-02-11T23:23:02.493Z,34.45
2023-02-11T23:24:05.107Z,28.47
2023-02-11T23:25:07.994Z,29.07
2023-02-11T23:26:10.992Z,34.31
2023-02-11T23:27:13.639Z,33.42
2023-02-11T23:28:16.668Z,32.72
2023-02-11T23:29:19.480Z,30.16
2023-02-11T23:30:22.278Z,32.79
2023-02-11T23:31:24.708Z,30.58
2023-02-11T23:32:27.198Z,35.26
2023-02-11T23:33:29.694Z,34.17
2023-02-11T23:34:32.192Z,38.67
2023-02-11T23:35:34.721Z,35.82
2023-02-11T23:36:37.299Z,34.71
2023-02-11T23:37:39.776Z,38.03
2023-02-11T23:38:41.971Z,33.28
2023-02-11T23:39:44.398Z,34.48
2023-02-11T23:40:46.841Z,36.17
2023-02-11T23:41:49.118Z,31.76
2023-02-11T23:42:51.402Z,33.66
2023-02-11T23:43:53.706Z,31.22
2023-02-11T23:44:59.216Z,33.91
2023-02-11T23:46:01.753Z,30.21
2023-02-11T23:47:04.200Z,29.67
2023-02-11T23:48:06.831Z,31.75
2023-02-11T23:49:09.318Z,31.08
2023-02-11T23:50:11.528Z,26.54
2023-02-11T23:51:14.091Z,26.87
2023-02-11T23:52:16.661Z,29.01
2023-02-11T23:53:19.201Z,30.13
2023-02-11T23:54:22.138Z,28.72
2023-02-11T23:55:24.575Z,25.20
2023-02-11T23:56:26.835Z,30.61
2023-02-11T23:57:29.157Z,27.77
2023-02-11T23:58:31.378Z,26.27
2023-02-11T23:59:33.603Z,28.88
